sensor_id;sensor_type;location;lat;lon;timestamp;temperature;humidity
39909;DHT22;25576;48.328;15.694;2022-07-24T00:07:25;22.90;99.90
39909;DHT22;25576;48.328;15.694;2022-07-24T00:13:00;22.60;99.90
39909;DHT22;25576;48.328;15.694;2022-07-24T00:18:33;22.40;99.90
39909;DHT22;25576;48.328;15.694;2022-07-24T00:24:18;22.50;99.90
39909;DHT22;25576;48.328;15.694;2022-07-24T00:29:56;22.40;99.90
39909;DHT22;25576;48.328;15.694;2022-07-24T00:35:29;22.60;99.90
39909;DHT22;25576;48.328;15.694;2022-07-24T00:41:16;22.70;99.90
39909;DHT22;25576;48.328;15.694;2022-07-24T00:46:52;22.60;99.90
39909;DHT22;25576;48.328;15.694;2022-07-24T00:52:38;22.40;99.90
39909;DHT22;25576;48.328;15.694;2022-07-24T01:04:19;22.50;99.90
39909;DHT22;25576;48.328;15.694;2022-07-24T01:10:09;22.50;99.90
39909;DHT22;25576;48.328;15.694;2022-07-24T01:16:00;22.60;99.90
39909;DHT22;25576;48.328;15.694;2022-07-24T01:21:52;22.50;99.90
39909;DHT22;25576;48.328;15.694;2022-07-24T01:27:28;22.60;99.90
39909;DHT22;25576;48.328;15.694;2022-07-24T01:33:11;22.70;99.90
39909;DHT22;25576;48.328;15.694;2022-07-24T01:38:53;22.60;99.90
39909;DHT22;25576;48.328;15.694;2022-07-24T01:44:39;22.70;99.90
39909;DHT22;25576;48.328;15.694;2022-07-24T01:56:10;22.50;99.90
39909;DHT22;25576;48.328;15.694;2022-07-24T02:01:56;22.50;99.90
39909;DHT22;25576;48.328;15.694;2022-07-24T02:07:34;22.50;99.90
39909;DHT22;25576;48.328;15.694;2022-07-24T02:13:25;22.50;99.90
39909;DHT22;25576;48.328;15.694;2022-07-24T02:19:13;22.40;99.90
39909;DHT22;25576;48.328;15.694;2022-07-24T02:25:05;22.30;99.90
39909;DHT22;25576;48.328;15.694;2022-07-24T02:30:54;22.40;99.90
39909;DHT22;25576;48.328;15.694;2022-07-24T02:36:41;22.30;99.90
39909;DHT22;25576;48.328;15.694;2022-07-24T02:42:18;22.20;99.90
39909;DHT22;25576;48.328;15.694;2022-07-24T02:48:03;22.40;99.90
39909;DHT22;25576;48.328;15.694;2022-07-24T02:53:43;22.40;99.90
39909;DHT22;25576;48.328;15.694;2022-07-24T02:59:16;22.30;99.90
39909;DHT22;25576;48.328;15.694;2022-07-24T03:04:53;22.20;99.90
39909;DHT22;25576;48.328;15.694;2022-07-24T03:10:46;22.20;99.90
39909;DHT22;25576;48.328;15.694;2022-07-24T03:16:22;22.30;99.90
39909;DHT22;25576;48.328;15.694;2022-07-24T03:22:03;22.10;99.90
39909;DHT22;25576;48.328;15.694;2022-07-24T03:27:39;22.00;99.90
39909;DHT22;25576;48.328;15.694;2022-07-24T03:33:20;22.00;99.90
39909;DHT22;25576;48.328;15.694;2022-07-24T03:38:58;21.90;99.90
39909;DHT22;25576;48.328;15.694;2022-07-24T03:44:34;21.90;99.90
39909;DHT22;25576;48.328;15.694;2022-07-24T03:53:56;21.80;1.00
39909;DHT22;25576;48.328;15.694;2022-07-24T03:59:48;21.90;1.00
39909;DHT22;25576;48.328;15.694;2022-07-24T04:05:22;21.80;1.00
39909;DHT22;25576;48.328;15.694;2022-07-24T04:11:04;21.70;1.00
39909;DHT22;25576;48.328;15.694;2022-07-24T04:16:48;21.80;1.00
39909;DHT22;25576;48.328;15.694;2022-07-24T04:22:24;21.70;1.00
39909;DHT22;25576;48.328;15.694;2022-07-24T04:28:01;21.70;1.00
39909;DHT22;25576;48.328;15.694;2022-07-24T04:33:36;21.80;1.00
39909;DHT22;25576;48.328;15.694;2022-07-24T04:39:12;21.70;1.00
39909;DHT22;25576;48.328;15.694;2022-07-24T04:44:46;21.80;1.00
39909;DHT22;25576;48.328;15.694;2022-07-24T04:50:24;21.90;1.00
39909;DHT22;25576;48.328;15.694;2022-07-24T04:56:07;21.90;1.00
39909;DHT22;25576;48.328;15.694;2022-07-24T05:07:42;22.00;1.00
39909;DHT22;25576;48.328;15.694;2022-07-24T05:13:23;22.10;1.00
39909;DHT22;25576;48.328;15.694;2022-07-24T05:18:58;22.10;1.00
39909;DHT22;25576;48.328;15.694;2022-07-24T05:24:34;22.10;1.00
39909;DHT22;25576;48.328;15.694;2022-07-24T05:30:08;22.20;1.00
39909;DHT22;25576;48.328;15.694;2022-07-24T05:35:47;22.40;1.00
39909;DHT22;25576;48.328;15.694;2022-07-24T05:41:29;22.60;99.90
39909;DHT22;25576;48.328;15.694;2022-07-24T05:47:13;22.70;99.90
39909;DHT22;25576;48.328;15.694;2022-07-24T05:52:44;22.50;99.90
39909;DHT22;25576;48.328;15.694;2022-07-24T05:58:23;22.60;99.90
39909;DHT22;25576;48.328;15.694;2022-07-24T06:04:01;22.70;99.90
39909;DHT22;25576;48.328;15.694;2022-07-24T06:09:37;22.90;99.90
39909;DHT22;25576;48.328;15.694;2022-07-24T06:15:17;22.90;99.90
39909;DHT22;25576;48.328;15.694;2022-07-24T06:20:48;22.90;99.90
39909;DHT22;25576;48.328;15.694;2022-07-24T06:26:20;23.00;99.90
39909;DHT22;25576;48.328;15.694;2022-07-24T06:31:54;23.20;99.90
39909;DHT22;25576;48.328;15.694;2022-07-24T06:37:25;23.30;99.90
39909;DHT22;25576;48.328;15.694;2022-07-24T06:42:56;23.60;99.90
39909;DHT22;25576;48.328;15.694;2022-07-24T06:48:36;23.80;99.90
39909;DHT22;25576;48.328;15.694;2022-07-24T06:54:08;23.80;99.90
39909;DHT22;25576;48.328;15.694;2022-07-24T06:59:40;23.90;99.90
39909;DHT22;25576;48.328;15.694;2022-07-24T07:05:17;24.40;99.90
39909;DHT22;25576;48.328;15.694;2022-07-24T07:10:50;24.50;99.90
39909;DHT22;25576;48.328;15.694;2022-07-24T07:16:25;24.20;99.90
39909;DHT22;25576;48.328;15.694;2022-07-24T07:22:09;24.20;99.90
39909;DHT22;25576;48.328;15.694;2022-07-24T07:28:04;24.60;99.90
39909;DHT22;25576;48.328;15.694;2022-07-24T07:33:51;24.60;99.90
39909;DHT22;25576;48.328;15.694;2022-07-24T07:39:48;24.40;99.90
39909;DHT22;25576;48.328;15.694;2022-07-24T07:45:20;24.70;99.90
39909;DHT22;25576;48.328;15.694;2022-07-24T07:50:58;24.80;99.90
39909;DHT22;25576;48.328;15.694;2022-07-24T08:00:21;25.30;99.90
39909;DHT22;25576;48.328;15.694;2022-07-24T08:05:54;25.20;99.90
39909;DHT22;25576;48.328;15.694;2022-07-24T08:11:26;25.40;99.90
39909;DHT22;25576;48.328;15.694;2022-07-24T08:17:00;25.40;99.90
39909;DHT22;25576;48.328;15.694;2022-07-24T08:22:33;25.40;99.90
39909;DHT22;25576;48.328;15.694;2022-07-24T08:28:07;25.40;99.90
39909;DHT22;25576;48.328;15.694;2022-07-24T08:33:45;25.50;99.90
39909;DHT22;25576;48.328;15.694;2022-07-24T08:39:19;25.80;99.90
39909;DHT22;25576;48.328;15.694;2022-07-24T08:45:00;26.10;99.90
39909;DHT22;25576;48.328;15.694;2022-07-24T08:50:36;26.10;99.90
39909;DHT22;25576;48.328;15.694;2022-07-24T08:56:10;26.30;99.90
39909;DHT22;25576;48.328;15.694;2022-07-24T09:01:45;26.30;99.90
39909;DHT22;25576;48.328;15.694;2022-07-24T09:07:29;26.70;99.90
39909;DHT22;25576;48.328;15.694;2022-07-24T09:13:11;26.40;99.90
39909;DHT22;25576;48.328;15.694;2022-07-24T09:18:43;26.60;99.90
39909;DHT22;25576;48.328;15.694;2022-07-24T09:24:19;26.70;99.90
39909;DHT22;25576;48.328;15.694;2022-07-24T09:29:51;26.70;99.90
39909;DHT22;25576;48.328;15.694;2022-07-24T09:35:32;26.80;99.90
39909;DHT22;25576;48.328;15.694;2022-07-24T09:41:06;27.00;99.90
39909;DHT22;25576;48.328;15.694;2022-07-24T09:46:39;27.10;99.90
39909;DHT22;25576;48.328;15.694;2022-07-24T09:52:18;27.20;99.90
39909;DHT22;25576;48.328;15.694;2022-07-24T09:57:54;27.30;99.90
39909;DHT22;25576;48.328;15.694;2022-07-24T10:03:27;27.50;99.90
39909;DHT22;25576;48.328;15.694;2022-07-24T10:09:03;27.40;99.90
39909;DHT22;25576;48.328;15.694;2022-07-24T10:14:39;27.70;99.90
39909;DHT22;25576;48.328;15.694;2022-07-24T10:20:11;28.00;99.90
39909;DHT22;25576;48.328;15.694;2022-07-24T10:25:52;28.00;99.90
39909;DHT22;25576;48.328;15.694;2022-07-24T10:31:27;27.70;99.90
39909;DHT22;25576;48.328;15.694;2022-07-24T10:37:05;27.90;99.90
39909;DHT22;25576;48.328;15.694;2022-07-24T10:48:33;28.40;99.90
39909;DHT22;25576;48.328;15.694;2022-07-24T10:54:07;28.50;99.90
39909;DHT22;25576;48.328;15.694;2022-07-24T10:59:49;28.50;99.90
39909;DHT22;25576;48.328;15.694;2022-07-24T11:05:33;28.60;99.90
39909;DHT22;25576;48.328;15.694;2022-07-24T11:11:18;28.90;99.90
39909;DHT22;25576;48.328;15.694;2022-07-24T11:17:12;29.00;99.90
39909;DHT22;25576;48.328;15.694;2022-07-24T11:23:20;29.10;99.90
39909;DHT22;25576;48.328;15.694;2022-07-24T11:34:37;29.50;99.90
39909;DHT22;25576;48.328;15.694;2022-07-24T11:40:15;30.00;99.90
39909;DHT22;25576;48.328;15.694;2022-07-24T11:45:50;29.80;99.90
39909;DHT22;25576;48.328;15.694;2022-07-24T11:51:22;30.30;99.90
39909;DHT22;25576;48.328;15.694;2022-07-24T11:56:55;30.50;99.90
39909;DHT22;25576;48.328;15.694;2022-07-24T12:06:11;30.70;99.90
39909;DHT22;25576;48.328;15.694;2022-07-24T12:11:43;31.00;99.90
39909;DHT22;25576;48.328;15.694;2022-07-24T12:17:14;31.30;99.90
39909;DHT22;25576;48.328;15.694;2022-07-24T12:22:45;31.40;99.90
39909;DHT22;25576;48.328;15.694;2022-07-24T12:28:17;31.40;99.90
39909;DHT22;25576;48.328;15.694;2022-07-24T12:33:54;31.40;99.90
39909;DHT22;25576;48.328;15.694;2022-07-24T12:39:23;31.60;99.90
39909;DHT22;25576;48.328;15.694;2022-07-24T12:44:54;31.10;99.90
39909;DHT22;25576;48.328;15.694;2022-07-24T12:50:26;31.10;99.90
39909;DHT22;25576;48.328;15.694;2022-07-24T12:56:04;30.50;99.90
39909;DHT22;25576;48.328;15.694;2022-07-24T13:01:46;30.20;99.90
39909;DHT22;25576;48.328;15.694;2022-07-24T13:07:18;30.10;99.90
39909;DHT22;25576;48.328;15.694;2022-07-24T13:12:49;30.30;99.90
39909;DHT22;25576;48.328;15.694;2022-07-24T13:18:20;30.50;99.90
39909;DHT22;25576;48.328;15.694;2022-07-24T13:23:54;30.30;99.90
39909;DHT22;25576;48.328;15.694;2022-07-24T13:29:25;30.30;99.90
39909;DHT22;25576;48.328;15.694;2022-07-24T13:34:55;30.20;99.90
39909;DHT22;25576;48.328;15.694;2022-07-24T13:40:28;30.60;99.90
39909;DHT22;25576;48.328;15.694;2022-07-24T13:45:58;31.10;99.90
39909;DHT22;25576;48.328;15.694;2022-07-24T13:51:29;30.80;99.90
39909;DHT22;25576;48.328;15.694;2022-07-24T13:57:01;30.90;99.90
39909;DHT22;25576;48.328;15.694;2022-07-24T14:02:33;31.00;99.90
39909;DHT22;25576;48.328;15.694;2022-07-24T14:08:03;31.40;99.90
39909;DHT22;25576;48.328;15.694;2022-07-24T14:13:35;31.40;99.90
39909;DHT22;25576;48.328;15.694;2022-07-24T14:19:05;31.40;99.90
39909;DHT22;25576;48.328;15.694;2022-07-24T14:24:36;31.50;99.90
39909;DHT22;25576;48.328;15.694;2022-07-24T14:30:08;31.60;99.90
39909;DHT22;25576;48.328;15.694;2022-07-24T14:35:38;31.60;99.90
39909;DHT22;25576;48.328;15.694;2022-07-24T14:41:09;31.40;99.90
39909;DHT22;25576;48.328;15.694;2022-07-24T14:46:41;31.10;99.90
39909;DHT22;25576;48.328;15.694;2022-07-24T14:52:12;31.00;99.90
39909;DHT22;25576;48.328;15.694;2022-07-24T14:57:44;30.80;99.90
39909;DHT22;25576;48.328;15.694;2022-07-24T15:03:16;30.90;99.90
39909;DHT22;25576;48.328;15.694;2022-07-24T15:08:47;30.70;99.90
39909;DHT22;25576;48.328;15.694;2022-07-24T15:14:17;30.70;99.90
39909;DHT22;25576;48.328;15.694;2022-07-24T15:19:49;30.70;99.90
39909;DHT22;25576;48.328;15.694;2022-07-24T15:25:20;30.80;99.90
39909;DHT22;25576;48.328;15.694;2022-07-24T15:30:50;30.70;99.90
39909;DHT22;25576;48.328;15.694;2022-07-24T15:36:22;30.20;99.90
39909;DHT22;25576;48.328;15.694;2022-07-24T15:41:53;30.10;99.90
39909;DHT22;25576;48.328;15.694;2022-07-24T15:47:24;30.10;99.90
39909;DHT22;25576;48.328;15.694;2022-07-24T15:52:56;29.90;99.90
39909;DHT22;25576;48.328;15.694;2022-07-24T15:58:27;29.80;99.90
39909;DHT22;25576;48.328;15.694;2022-07-24T16:03:57;29.90;99.90
39909;DHT22;25576;48.328;15.694;2022-07-24T16:09:29;29.80;99.90
39909;DHT22;25576;48.328;15.694;2022-07-24T16:15:00;29.80;99.90
39909;DHT22;25576;48.328;15.694;2022-07-24T16:20:30;29.60;99.90
39909;DHT22;25576;48.328;15.694;2022-07-24T16:26:13;29.50;99.90
39909;DHT22;25576;48.328;15.694;2022-07-24T16:31:44;29.40;99.90
39909;DHT22;25576;48.328;15.694;2022-07-24T16:37:15;29.40;99.90
39909;DHT22;25576;48.328;15.694;2022-07-24T16:42:48;29.30;99.90
39909;DHT22;25576;48.328;15.694;2022-07-24T16:48:19;29.30;99.90
39909;DHT22;25576;48.328;15.694;2022-07-24T16:53:49;29.20;99.90
39909;DHT22;25576;48.328;15.694;2022-07-24T16:59:22;29.20;99.90
39909;DHT22;25576;48.328;15.694;2022-07-24T17:51:05;27.50;99.90
39909;DHT22;25576;48.328;15.694;2022-07-24T17:56:48;27.20;99.90
39909;DHT22;25576;48.328;15.694;2022-07-24T18:02:29;27.00;99.90
39909;DHT22;25576;48.328;15.694;2022-07-24T18:08:20;26.80;99.90
39909;DHT22;25576;48.328;15.694;2022-07-24T18:14:08;26.60;99.90
39909;DHT22;25576;48.328;15.694;2022-07-24T18:19:48;26.50;99.90
39909;DHT22;25576;48.328;15.694;2022-07-24T18:25:28;26.40;99.90
39909;DHT22;25576;48.328;15.694;2022-07-24T18:31:03;26.20;99.90
39909;DHT22;25576;48.328;15.694;2022-07-24T18:36:38;26.10;99.90
39909;DHT22;25576;48.328;15.694;2022-07-24T18:42:22;25.90;99.90
39909;DHT22;25576;48.328;15.694;2022-07-24T18:48:01;25.90;99.90
39909;DHT22;25576;48.328;15.694;2022-07-24T18:53:47;25.70;99.90
39909;DHT22;25576;48.328;15.694;2022-07-24T18:59:24;25.60;99.90
39909;DHT22;25576;48.328;15.694;2022-07-24T19:04:54;25.50;99.90
39909;DHT22;25576;48.328;15.694;2022-07-24T19:14:08;25.10;99.90
39909;DHT22;25576;48.328;15.694;2022-07-24T19:19:40;25.00;99.90
39909;DHT22;25576;48.328;15.694;2022-07-24T19:25:14;24.80;99.90
39909;DHT22;25576;48.328;15.694;2022-07-24T19:30:46;24.60;99.90
39909;DHT22;25576;48.328;15.694;2022-07-24T19:36:18;24.40;99.90
39909;DHT22;25576;48.328;15.694;2022-07-24T19:41:48;24.20;99.90
39909;DHT22;25576;48.328;15.694;2022-07-24T19:47:19;24.00;99.90
39909;DHT22;25576;48.328;15.694;2022-07-24T19:52:54;23.90;99.90
39909;DHT22;25576;48.328;15.694;2022-07-24T19:58:24;23.70;99.90
39909;DHT22;25576;48.328;15.694;2022-07-24T20:03:55;23.60;99.90
39909;DHT22;25576;48.328;15.694;2022-07-24T20:09:27;23.50;99.90
39909;DHT22;25576;48.328;15.694;2022-07-24T20:14:58;23.40;99.90
39909;DHT22;25576;48.328;15.694;2022-07-24T20:20:28;23.20;99.90
39909;DHT22;25576;48.328;15.694;2022-07-24T20:26:00;23.00;99.90
39909;DHT22;25576;48.328;15.694;2022-07-24T20:31:31;23.00;99.90
39909;DHT22;25576;48.328;15.694;2022-07-24T20:37:01;22.90;99.90
39909;DHT22;25576;48.328;15.694;2022-07-24T20:42:34;22.70;99.90
39909;DHT22;25576;48.328;15.694;2022-07-24T20:48:05;22.60;99.90
39909;DHT22;25576;48.328;15.694;2022-07-24T20:53:35;22.40;99.90
39909;DHT22;25576;48.328;15.694;2022-07-24T20:59:10;22.40;99.90
39909;DHT22;25576;48.328;15.694;2022-07-24T21:04:41;22.30;99.90
39909;DHT22;25576;48.328;15.694;2022-07-24T21:10:12;22.30;99.90
39909;DHT22;25576;48.328;15.694;2022-07-24T21:15:46;22.10;99.90
39909;DHT22;25576;48.328;15.694;2022-07-24T21:21:19;22.10;99.90
39909;DHT22;25576;48.328;15.694;2022-07-24T21:26:50;22.10;99.90
39909;DHT22;25576;48.328;15.694;2022-07-24T21:32:22;22.10;99.90
39909;DHT22;25576;48.328;15.694;2022-07-24T21:37:53;22.00;99.90
39909;DHT22;25576;48.328;15.694;2022-07-24T21:43:25;21.80;99.90
39909;DHT22;25576;48.328;15.694;2022-07-24T21:49:01;21.60;99.90
39909;DHT22;25576;48.328;15.694;2022-07-24T21:54:32;21.50;99.90
39909;DHT22;25576;48.328;15.694;2022-07-24T22:00:03;21.50;99.90
39909;DHT22;25576;48.328;15.694;2022-07-24T22:05:36;21.50;99.90
39909;DHT22;25576;48.328;15.694;2022-07-24T22:11:07;21.40;99.90
39909;DHT22;25576;48.328;15.694;2022-07-24T22:16:37;21.30;99.90
39909;DHT22;25576;48.328;15.694;2022-07-24T22:22:10;21.00;99.90
39909;DHT22;25576;48.328;15.694;2022-07-24T22:27:41;20.90;99.90
39909;DHT22;25576;48.328;15.694;2022-07-24T22:33:12;21.00;99.90
39909;DHT22;25576;48.328;15.694;2022-07-24T22:38:45;20.90;99.90
39909;DHT22;25576;48.328;15.694;2022-07-24T22:44:16;20.60;99.90
39909;DHT22;25576;48.328;15.694;2022-07-24T22:49:48;20.60;99.90
39909;DHT22;25576;48.328;15.694;2022-07-24T22:55:21;20.50;99.90
39909;DHT22;25576;48.328;15.694;2022-07-24T23:00:53;20.50;99.90
39909;DHT22;25576;48.328;15.694;2022-07-24T23:06:23;20.50;99.90
39909;DHT22;25576;48.328;15.694;2022-07-24T23:11:56;20.40;99.90
39909;DHT22;25576;48.328;15.694;2022-07-24T23:17:27;20.30;99.90
39909;DHT22;25576;48.328;15.694;2022-07-24T23:22:58;20.20;99.90
39909;DHT22;25576;48.328;15.694;2022-07-24T23:28:30;20.20;99.90
39909;DHT22;25576;48.328;15.694;2022-07-24T23:34:00;20.00;99.90
39909;DHT22;25576;48.328;15.694;2022-07-24T23:39:31;20.10;99.90
39909;DHT22;25576;48.328;15.694;2022-07-24T23:45:32;20.00;99.90
39909;DHT22;25576;48.328;15.694;2022-07-24T23:51:05;19.80;99.90
39909;DHT22;25576;48.328;15.694;2022-07-24T23:56:36;19.80;99.90
